Time;durP1;ratioP1;P1;durP2;ratioP2;P2;SDS_P1;SDS_P2;PMS_P1;PMS_P2;Temp;Humidity;BMP_temperature;BMP_pressure;BME280_temperature;BME280_humidity;BME280_pressure;Samples;Min_cycle;Max_cycle;Signal;HPM_P1;HPM_P2
2022/03/08 00:01:34;;;;;;;78.57;14.75;;;;;;;;;;5089873;28;20244;-70
2022/03/08 00:04:01;;;;;;;77.78;14.07;;;;;;;;;;5093092;28;20204;-69
2022/03/08 00:06:28;;;;;;;78.15;16.92;;;;;;;;;;5092838;28;20230;-67
2022/03/08 00:08:55;;;;;;;78.50;15.68;;;;;;;;;;5091896;28;20204;-68
2022/03/08 00:11:23;;;;;;;81.03;16.63;;;;;;;;;;5092720;28;20295;-67
2022/03/08 00:13:51;;;;;;;81.88;15.95;;;;;;;;;;5092673;28;20204;-67
2022/03/08 00:16:20;;;;;;;85.53;18.27;;;;;;;;;;5092705;28;20673;-67
2022/03/08 00:18:48;;;;;;;85.55;18.13;;;;;;;;;;5092093;28;20204;-68
2022/03/08 00:21:16;;;;;;;85.40;18.83;;;;;;;;;;5092664;28;20208;-68
2022/03/08 00:23:44;;;;;;;93.63;19.55;;;;;;;;;;5092252;28;20239;-67
2022/03/08 00:26:11;;;;;;;89.10;20.00;;;;;;;;;;5092246;28;20226;-67
2022/03/08 00:28:38;;;;;;;92.03;19.13;;;;;;;;;;5091416;28;20312;-68
2022/03/08 00:31:05;;;;;;;83.97;18.65;;;;;;;;;;5092219;28;20583;-67
2022/03/08 00:33:34;;;;;;;85.55;18.17;;;;;;;;;;5068992;28;20209;-67
2022/03/08 00:36:01;;;;;;;83.70;17.58;;;;;;;;;;5070941;28;20240;-68
2022/03/08 00:38:28;;;;;;;81.45;17.13;;;;;;;;;;5071086;28;20764;-68
2022/03/08 00:40:55;;;;;;;89.85;21.08;;;;;;;;;;5071799;28;20201;-67
2022/03/08 00:43:22;;;;;;;88.45;18.88;;;;;;;;;;5072109;28;20201;-67
2022/03/08 00:45:50;;;;;;;94.40;20.55;;;;;;;;;;5072056;28;20311;-67
2022/03/08 00:48:17;;;;;;;84.60;18.65;;;;;;;;;;5071284;28;20296;-67
2022/03/08 00:50:45;;;;;;;81.90;17.38;;;;;;;;;;5071595;28;20309;-68
2022/03/08 00:53:12;;;;;;;84.00;17.60;;;;;;;;;;5071835;28;20201;-69
2022/03/08 00:55:40;;;;;;;81.95;17.63;;;;;;;;;;5071717;28;20605;-68
2022/03/08 00:58:08;;;;;;;77.88;16.77;;;;;;;;;;5071125;28;20295;-69
2022/03/08 01:00:36;;;;;;;90.95;18.15;;;;;;;;;;5071889;28;20299;-68
2022/03/08 01:03:03;;;;;;;79.32;17.08;;;;;;;;;;5071816;28;20231;-69
2022/03/08 01:05:31;;;;;;;83.13;18.83;;;;;;;;;;5091607;28;20231;-68
2022/03/08 01:08:00;;;;;;;81.05;17.52;;;;;;;;;;5091057;28;20302;-68
2022/03/08 01:10:28;;;;;;;83.38;17.40;;;;;;;;;;5091820;28;20208;-68
2022/03/08 01:12:56;;;;;;;83.53;16.70;;;;;;;;;;5091549;28;20554;-68
2022/03/08 01:15:24;;;;;;;85.53;18.88;;;;;;;;;;5091743;28;20220;-68
2022/03/08 01:17:51;;;;;;;88.95;18.70;;;;;;;;;;5090971;28;20602;-68
2022/03/08 01:20:19;;;;;;;83.85;18.15;;;;;;;;;;5091605;28;20208;-68
2022/03/08 01:22:46;;;;;;;85.18;18.75;;;;;;;;;;5091537;28;20382;-68
2022/03/08 01:25:16;;;;;;;84.18;18.63;;;;;;;;;;5091894;28;20763;-67
2022/03/08 01:27:43;;;;;;;96.03;19.75;;;;;;;;;;5090878;28;20243;-67
2022/03/08 01:30:12;;;;;;;82.45;18.08;;;;;;;;;;5091316;28;20212;-68
2022/03/08 01:32:39;;;;;;;85.15;18.55;;;;;;;;;;5091729;28;20296;-68
2022/03/08 01:35:07;;;;;;;84.20;18.00;;;;;;;;;;5078574;28;20331;-68
2022/03/08 01:37:35;;;;;;;91.20;19.60;;;;;;;;;;5070788;28;20593;-68
2022/03/08 01:40:02;;;;;;;82.88;17.20;;;;;;;;;;5071728;28;20296;-70
2022/03/08 01:42:31;;;;;;;88.95;18.10;;;;;;;;;;5071153;28;20236;-67
2022/03/08 01:44:58;;;;;;;81.47;17.33;;;;;;;;;;5071006;28;20647;-70
2022/03/08 01:47:26;;;;;;;82.57;18.02;;;;;;;;;;5074385;28;20201;-68
2022/03/08 01:49:54;;;;;;;87.13;18.15;;;;;;;;;;5074871;28;20678;-68
2022/03/08 01:52:23;;;;;;;82.38;16.48;;;;;;;;;;5074823;28;20209;-68
2022/03/08 01:54:50;;;;;;;76.63;14.52;;;;;;;;;;5074873;28;20295;-68
2022/03/08 01:57:19;;;;;;;93.13;19.35;;;;;;;;;;5073974;28;20312;-68
2022/03/08 01:59:47;;;;;;;79.80;17.77;;;;;;;;;;5075028;28;20292;-67
2022/03/08 02:02:15;;;;;;;84.65;19.25;;;;;;;;;;5074549;28;20579;-71
2022/03/08 02:04:42;;;;;;;83.45;17.33;;;;;;;;;;5074134;28;20219;-68
2022/03/08 02:07:10;;;;;;;81.20;17.75;;;;;;;;;;5084999;28;20287;-68
2022/03/08 02:09:37;;;;;;;79.13;16.55;;;;;;;;;;5094881;28;20235;-68
2022/03/08 02:12:04;;;;;;;85.28;19.15;;;;;;;;;;5094751;28;20218;-68
2022/03/08 02:14:32;;;;;;;81.40;17.30;;;;;;;;;;5094922;28;20215;-67
2022/03/08 02:17:00;;;;;;;77.22;16.02;;;;;;;;;;5094424;28;20786;-69
2022/03/08 02:19:27;;;;;;;83.95;17.55;;;;;;;;;;5094059;28;20296;-68
2022/03/08 02:21:56;;;;;;;82.13;16.40;;;;;;;;;;5094624;28;20586;-68
2022/03/08 02:24:23;;;;;;;83.07;17.38;;;;;;;;;;5094298;28;20208;-69
2022/03/08 02:26:51;;;;;;;80.85;16.33;;;;;;;;;;5094696;28;20221;-68
2022/03/08 02:29:19;;;;;;;88.68;18.48;;;;;;;;;;5093789;28;20227;-68
2022/03/08 02:31:47;;;;;;;81.82;16.75;;;;;;;;;;5094341;28;20300;-68
2022/03/08 02:34:15;;;;;;;87.63;18.50;;;;;;;;;;5094425;28;20204;-67
2022/03/08 02:36:42;;;;;;;83.75;15.68;;;;;;;;;;5093257;28;20227;-68
2022/03/08 02:39:11;;;;;;;82.03;16.05;;;;;;;;;;5072710;28;20617;-70
2022/03/08 02:41:38;;;;;;;79.70;14.85;;;;;;;;;;5074364;28;20566;-68
2022/03/08 02:44:05;;;;;;;82.43;16.10;;;;;;;;;;5074161;28;20205;-68
2022/03/08 02:46:32;;;;;;;80.25;16.48;;;;;;;;;;5073771;28;20312;-72
2022/03/08 02:48:59;;;;;;;78.03;16.95;;;;;;;;;;5070641;28;20669;-67
2022/03/08 02:51:26;;;;;;;83.68;17.00;;;;;;;;;;5074174;28;20211;-68
2022/03/08 02:53:54;;;;;;;83.97;17.33;;;;;;;;;;5074013;28;20205;-69
2022/03/08 02:56:22;;;;;;;81.47;17.08;;;;;;;;;;5073745;28;20225;-67
2022/03/08 02:58:49;;;;;;;77.70;15.38;;;;;;;;;;5072619;28;20207;-68
2022/03/08 03:01:16;;;;;;;81.50;15.98;;;;;;;;;;5073831;28;20564;-68
2022/03/08 03:03:44;;;;;;;78.20;15.02;;;;;;;;;;5073975;28;20239;-68
2022/03/08 03:06:11;;;;;;;84.72;17.27;;;;;;;;;;5073778;28;20308;-68
2022/03/08 03:08:38;;;;;;;79.93;15.15;;;;;;;;;;5070847;28;20205;-68
2022/03/08 03:11:05;;;;;;;77.20;15.52;;;;;;;;;;5093220;28;20244;-68
2022/03/08 03:13:34;;;;;;;77.43;15.68;;;;;;;;;;5093600;28;20200;-68
2022/03/08 03:16:01;;;;;;;85.20;16.15;;;;;;;;;;5093492;28;20224;-68
2022/03/08 03:18:28;;;;;;;76.13;15.73;;;;;;;;;;5092967;28;20230;-68
2022/03/08 03:20:55;;;;;;;77.30;15.80;;;;;;;;;;5093549;28;20200;-68
2022/03/08 03:23:22;;;;;;;84.43;16.45;;;;;;;;;;5093702;28;20299;-68
2022/03/08 03:25:49;;;;;;;84.43;17.23;;;;;;;;;;5093426;28;20229;-68
2022/03/08 03:28:16;;;;;;;75.85;15.43;;;;;;;;;;5092846;28;20672;-67
2022/03/08 03:30:45;;;;;;;80.35;15.85;;;;;;;;;;5093233;28;20390;-67
2022/03/08 03:33:12;;;;;;;86.35;19.40;;;;;;;;;;5093275;28;20204;-68
2022/03/08 03:35:39;;;;;;;75.57;13.73;;;;;;;;;;5093434;28;20228;-68
2022/03/08 03:38:06;;;;;;;78.20;14.23;;;;;;;;;;5092408;28;20319;-68
2022/03/08 03:40:33;;;;;;;83.00;16.33;;;;;;;;;;5091803;28;20681;-72
2022/03/08 03:43:01;;;;;;;76.82;13.73;;;;;;;;;;5090797;28;20735;-67
2022/03/08 03:45:28;;;;;;;78.75;12.98;;;;;;;;;;5093297;28;20228;-68
2022/03/08 03:47:56;;;;;;;76.55;14.85;;;;;;;;;;5092305;28;20207;-67
2022/03/08 03:50:23;;;;;;;77.28;13.48;;;;;;;;;;5092839;28;20307;-68
2022/03/08 03:52:51;;;;;;;76.93;14.10;;;;;;;;;;5092885;28;20204;-67
2022/03/08 03:55:18;;;;;;;75.18;12.82;;;;;;;;;;5092958;28;20668;-68
2022/03/08 03:57:45;;;;;;;74.40;12.65;;;;;;;;;;5091826;28;20216;-67
2022/03/08 04:00:13;;;;;;;75.68;13.35;;;;;;;;;;5092865;28;20204;-68
2022/03/08 04:02:40;;;;;;;73.22;12.63;;;;;;;;;;5092594;28;20295;-68
2022/03/08 04:05:10;;;;;;;72.60;12.25;;;;;;;;;;5092609;28;20696;-69
2022/03/08 04:07:37;;;;;;;78.38;13.07;;;;;;;;;;5091771;28;20200;-68
2022/03/08 04:10:05;;;;;;;73.68;12.95;;;;;;;;;;5092511;28;20582;-67
2022/03/08 04:12:32;;;;;;;75.25;12.82;;;;;;;;;;5091581;28;20210;-68
2022/03/08 04:14:59;;;;;;;70.22;12.90;;;;;;;;;;5070194;28;20619;-68
2022/03/08 04:17:26;;;;;;;71.47;11.50;;;;;;;;;;5071477;28;20690;-68
2022/03/08 04:19:54;;;;;;;82.68;14.32;;;;;;;;;;5072074;28;20734;-68
2022/03/08 04:22:22;;;;;;;73.38;14.15;;;;;;;;;;5072065;28;20205;-66
2022/03/08 04:24:49;;;;;;;77.03;14.27;;;;;;;;;;5072170;28;20699;-67
2022/03/08 04:27:17;;;;;;;79.43;14.25;;;;;;;;;;5071446;28;20205;-68
2022/03/08 04:29:44;;;;;;;85.85;18.23;;;;;;;;;;5072038;28;20208;-68
2022/03/08 04:32:11;;;;;;;76.82;14.45;;;;;;;;;;5072067;28;20703;-68
2022/03/08 04:34:38;;;;;;;92.75;23.35;;;;;;;;;;5071876;28;20211;-68
2022/03/08 04:37:06;;;;;;;109.57;24.65;;;;;;;;;;5071442;28;20697;-68
2022/03/08 04:39:34;;;;;;;83.93;18.92;;;;;;;;;;5071465;28;20700;-69
2022/03/08 04:42:01;;;;;;;80.88;17.55;;;;;;;;;;5071926;28;20291;-68
2022/03/08 04:44:28;;;;;;;77.18;15.85;;;;;;;;;;5069762;28;20204;-69
2022/03/08 04:46:56;;;;;;;83.43;15.93;;;;;;;;;;5071567;28;20225;-69
2022/03/08 04:49:23;;;;;;;80.70;15.90;;;;;;;;;;5071034;28;20296;-68
2022/03/08 04:51:50;;;;;;;75.72;13.50;;;;;;;;;;5071535;28;20236;-68
2022/03/08 04:54:17;;;;;;;83.03;15.25;;;;;;;;;;5071684;28;20204;-70
2022/03/08 04:56:45;;;;;;;82.43;15.70;;;;;;;;;;5071577;28;20233;-68
2022/03/08 04:59:12;;;;;;;77.95;13.70;;;;;;;;;;5071040;28;20205;-68
2022/03/08 05:01:39;;;;;;;84.18;15.40;;;;;;;;;;5071537;28;20204;-68
2022/03/08 05:04:07;;;;;;;81.65;15.75;;;;;;;;;;5071486;28;20291;-69
2022/03/08 05:06:34;;;;;;;81.65;14.95;;;;;;;;;;5071223;28;20735;-68
2022/03/08 05:09:01;;;;;;;77.72;14.48;;;;;;;;;;5070853;28;20209;-68
2022/03/08 05:11:28;;;;;;;82.68;14.32;;;;;;;;;;5071506;28;20205;-68
2022/03/08 05:13:56;;;;;;;77.85;14.18;;;;;;;;;;5071489;28;20204;-68
2022/03/08 05:16:23;;;;;;;74.80;13.13;;;;;;;;;;5068552;28;20251;-70
2022/03/08 05:18:51;;;;;;;77.20;13.85;;;;;;;;;;5070510;28;20231;-68
2022/03/08 05:21:18;;;;;;;71.82;11.60;;;;;;;;;;5074051;28;20300;-70
2022/03/08 05:23:45;;;;;;;77.32;14.35;;;;;;;;;;5075778;28;20200;-68
2022/03/08 05:26:12;;;;;;;78.68;14.23;;;;;;;;;;5075175;28;20708;-68
2022/03/08 05:28:42;;;;;;;78.25;13.95;;;;;;;;;;5074684;28;20216;-68
2022/03/08 05:31:11;;;;;;;78.88;13.25;;;;;;;;;;5075244;28;20212;-68
2022/03/08 05:33:38;;;;;;;73.30;12.30;;;;;;;;;;5074954;28;20303;-69
2022/03/08 05:36:05;;;;;;;75.78;15.02;;;;;;;;;;5075408;28;20225;-69
2022/03/08 05:38:32;;;;;;;78.38;13.75;;;;;;;;;;5074551;28;20233;-70
2022/03/08 05:40:59;;;;;;;75.25;12.70;;;;;;;;;;5075295;28;20205;-68
2022/03/08 05:43:27;;;;;;;84.40;15.52;;;;;;;;;;5075396;28;20205;-69
2022/03/08 05:45:54;;;;;;;82.35;14.35;;;;;;;;;;5074623;28;20235;-68
2022/03/08 05:48:22;;;;;;;76.22;14.60;;;;;;;;;;5084819;28;20208;-68
2022/03/08 05:50:50;;;;;;;81.10;14.48;;;;;;;;;;5095201;28;20691;-68
2022/03/08 05:53:17;;;;;;;74.28;13.77;;;;;;;;;;5095342;28;20208;-69
2022/03/08 05:55:44;;;;;;;70.53;12.07;;;;;;;;;;5095196;28;20225;-68
2022/03/08 05:58:11;;;;;;;79.20;12.32;;;;;;;;;;5094456;28;20230;-68
2022/03/08 06:00:38;;;;;;;73.68;14.70;;;;;;;;;;5094861;28;20200;-68
2022/03/08 06:03:05;;;;;;;79.50;12.18;;;;;;;;;;5094801;28;20207;-69
2022/03/08 06:05:35;;;;;;;73.00;12.68;;;;;;;;;;5094952;28;20311;-68
2022/03/08 06:08:02;;;;;;;74.88;14.00;;;;;;;;;;5094511;28;20200;-68
2022/03/08 06:10:30;;;;;;;80.50;16.73;;;;;;;;;;5094823;28;20208;-68
2022/03/08 06:12:57;;;;;;;82.13;16.00;;;;;;;;;;5094565;28;20587;-68
2022/03/08 06:15:24;;;;;;;87.03;18.83;;;;;;;;;;5094680;28;20228;-69
2022/03/08 06:17:51;;;;;;;90.03;17.67;;;;;;;;;;5093684;28;20224;-68
2022/03/08 06:20:19;;;;;;;88.22;18.90;;;;;;;;;;5091616;28;20738;-69
2022/03/08 06:22:47;;;;;;;91.32;18.73;;;;;;;;;;5094550;28;20204;-69
2022/03/08 06:25:14;;;;;;;85.68;18.63;;;;;;;;;;5094417;28;20315;-69
2022/03/08 06:27:41;;;;;;;98.22;21.25;;;;;;;;;;5093632;28;20207;-70
2022/03/08 06:30:09;;;;;;;87.43;18.73;;;;;;;;;;5094519;28;20703;-69
2022/03/08 06:32:36;;;;;;;89.75;19.15;;;;;;;;;;5093096;28;20208;-69
2022/03/08 06:35:04;;;;;;;90.55;18.00;;;;;;;;;;5094559;28;20239;-70
2022/03/08 06:37:31;;;;;;;88.63;18.65;;;;;;;;;;5093662;28;20310;-68
2022/03/08 06:40:00;;;;;;;82.53;17.08;;;;;;;;;;5094170;28;20680;-68
2022/03/08 06:42:27;;;;;;;90.10;19.80;;;;;;;;;;5094421;28;20215;-67
2022/03/08 06:44:54;;;;;;;77.25;15.77;;;;;;;;;;5094219;28;20309;-69
2022/03/08 06:47:21;;;;;;;79.78;14.70;;;;;;;;;;5093427;28;20243;-68
2022/03/08 06:49:48;;;;;;;80.47;16.13;;;;;;;;;;5087244;28;20709;-69
2022/03/08 06:52:16;;;;;;;83.05;15.45;;;;;;;;;;5073722;28;20292;-69
2022/03/08 06:54:43;;;;;;;82.68;16.63;;;;;;;;;;5073509;28;20641;-69
2022/03/08 06:57:11;;;;;;;81.68;15.55;;;;;;;;;;5073023;28;20247;-69
2022/03/08 06:59:39;;;;;;;85.35;15.65;;;;;;;;;;5073688;28;20209;-69
2022/03/08 07:02:06;;;;;;;80.47;15.45;;;;;;;;;;5073724;28;20704;-69
2022/03/08 07:04:33;;;;;;;77.82;16.10;;;;;;;;;;5073305;28;20296;-69
2022/03/08 07:07:00;;;;;;;81.47;16.52;;;;;;;;;;5073283;28;20235;-71
2022/03/08 07:09:28;;;;;;;81.55;14.00;;;;;;;;;;5072651;28;20578;-69
2022/03/08 07:11:55;;;;;;;80.00;15.20;;;;;;;;;;5073298;28;20201;-69
2022/03/08 07:14:24;;;;;;;81.95;17.55;;;;;;;;;;5073580;28;20200;-68
2022/03/08 07:16:51;;;;;;;78.07;13.93;;;;;;;;;;5073232;28;20231;-70
2022/03/08 07:19:18;;;;;;;82.57;15.45;;;;;;;;;;5072619;28;20654;-69
2022/03/08 07:21:45;;;;;;;80.47;17.25;;;;;;;;;;5073770;28;20229;-69
2022/03/08 07:24:13;;;;;;;74.05;11.98;;;;;;;;;;5093556;28;20296;-69
2022/03/08 07:26:41;;;;;;;70.18;11.90;;;;;;;;;;5092963;28;20263;-70
2022/03/08 07:29:08;;;;;;;75.32;12.75;;;;;;;;;;5092313;28;20304;-67
2022/03/08 07:31:36;;;;;;;76.32;13.40;;;;;;;;;;5092209;28;20583;-66
2022/03/08 07:34:03;;;;;;;75.07;13.05;;;;;;;;;;5093272;28;20210;-68
2022/03/08 07:36:31;;;;;;;69.82;11.80;;;;;;;;;;5093140;28;20236;-68
2022/03/08 07:38:58;;;;;;;77.53;12.73;;;;;;;;;;5092449;28;20764;-67
2022/03/08 07:41:25;;;;;;;75.05;12.73;;;;;;;;;;5093165;28;20200;-68
2022/03/08 07:43:52;;;;;;;74.32;12.80;;;;;;;;;;5092583;28;20673;-67
2022/03/08 07:46:19;;;;;;;71.20;11.93;;;;;;;;;;5092952;28;20315;-69
2022/03/08 07:48:48;;;;;;;73.50;13.00;;;;;;;;;;5092242;28;20203;-67
2022/03/08 07:51:15;;;;;;;71.75;12.65;;;;;;;;;;5093297;28;20235;-67
2022/03/08 07:53:42;;;;;;;70.05;10.60;;;;;;;;;;5079694;28;20292;-68
2022/03/08 07:56:10;;;;;;;73.18;13.23;;;;;;;;;;5072513;28;20774;-67
2022/03/08 07:58:40;;;;;;;70.43;12.63;;;;;;;;;;5071834;28;20225;-68
2022/03/08 08:01:07;;;;;;;73.53;13.07;;;;;;;;;;5072572;28;20303;-69
2022/03/08 08:03:34;;;;;;;78.90;12.60;;;;;;;;;;5072207;28;20209;-69
2022/03/08 08:06:03;;;;;;;73.55;11.70;;;;;;;;;;5072850;28;20229;-68
2022/03/08 08:08:30;;;;;;;70.47;11.25;;;;;;;;;;5071794;28;20639;-69
2022/03/08 08:10:57;;;;;;;71.72;10.93;;;;;;;;;;5072386;28;20209;-67
2022/03/08 08:13:24;;;;;;;69.80;10.90;;;;;;;;;;5072461;28;20207;-69
2022/03/08 08:15:51;;;;;;;70.20;11.55;;;;;;;;;;5071962;28;20243;-68
2022/03/08 08:18:19;;;;;;;75.38;12.40;;;;;;;;;;5071727;28;20232;-68
2022/03/08 08:20:46;;;;;;;72.45;11.32;;;;;;;;;;5072140;28;20211;-68
2022/03/08 08:23:14;;;;;;;77.35;13.55;;;;;;;;;;5072163;28;20207;-68
2022/03/08 08:25:41;;;;;;;79.55;12.23;;;;;;;;;;5080001;28;20235;-68
2022/03/08 08:28:09;;;;;;;70.38;12.43;;;;;;;;;;5091603;28;20238;-70
2022/03/08 08:30:36;;;;;;;71.57;12.07;;;;;;;;;;5092186;28;20281;-69
2022/03/08 08:33:03;;;;;;;74.78;12.70;;;;;;;;;;5092575;28;20206;-68
2022/03/08 08:35:31;;;;;;;70.25;10.88;;;;;;;;;;5092135;28;20224;-68
2022/03/08 08:37:59;;;;;;;72.45;11.70;;;;;;;;;;5091520;28;20227;-68
2022/03/08 08:40:27;;;;;;;70.78;11.20;;;;;;;;;;5092330;28;20316;-68
2022/03/08 08:42:55;;;;;;;71.82;11.65;;;;;;;;;;5092035;28;20344;-68
2022/03/08 08:45:22;;;;;;;73.88;11.38;;;;;;;;;;5092414;28;20232;-68
2022/03/08 08:47:49;;;;;;;75.32;12.98;;;;;;;;;;5091631;28;20204;-68
2022/03/08 08:50:16;;;;;;;69.10;10.40;;;;;;;;;;5092185;28;20584;-68
2022/03/08 08:52:43;;;;;;;68.85;10.63;;;;;;;;;;5092351;28;20206;-70
2022/03/08 08:55:11;;;;;;;68.72;10.82;;;;;;;;;;5091208;28;20592;-68
2022/03/08 08:57:40;;;;;;;65.90;8.82;;;;;;;;;;5087603;28;20212;-69
2022/03/08 09:00:08;;;;;;;67.85;9.18;;;;;;;;;;5092166;28;20204;-68
2022/03/08 09:02:35;;;;;;;68.97;11.20;;;;;;;;;;5091983;28;20291;-68
2022/03/08 09:05:02;;;;;;;67.65;9.68;;;;;;;;;;5092033;28;20214;-68
2022/03/08 09:07:29;;;;;;;67.35;8.50;;;;;;;;;;5091056;28;20283;-67
2022/03/08 09:09:57;;;;;;;65.40;7.85;;;;;;;;;;5091771;28;20283;-69
2022/03/08 09:12:24;;;;;;;66.10;8.07;;;;;;;;;;5091735;28;20206;-68
2022/03/08 09:14:52;;;;;;;63.97;7.55;;;;;;;;;;5091699;28;20208;-68
2022/03/08 09:17:19;;;;;;;63.28;7.03;;;;;;;;;;5091018;28;20300;-68
2022/03/08 09:19:47;;;;;;;72.57;8.98;;;;;;;;;;5091954;28;20232;-69
2022/03/08 09:22:14;;;;;;;65.00;7.30;;;;;;;;;;5091614;28;20207;-68
2022/03/08 09:24:42;;;;;;;66.00;8.43;;;;;;;;;;5091465;28;20553;-68
2022/03/08 09:27:09;;;;;;;63.00;7.35;;;;;;;;;;5091244;28;20239;-69
2022/03/08 09:29:36;;;;;;;65.03;7.80;;;;;;;;;;5091474;28;20756;-68
2022/03/08 09:32:05;;;;;;;64.53;8.15;;;;;;;;;;5089168;28;20200;-71
2022/03/08 09:34:32;;;;;;;65.05;7.05;;;;;;;;;;5091119;28;20294;-68
2022/03/08 09:36:59;;;;;;;61.78;6.20;;;;;;;;;;5091348;28;20658;-70
2022/03/08 09:39:26;;;;;;;61.65;6.93;;;;;;;;;;5090671;28;20224;-68
2022/03/08 09:41:55;;;;;;;64.00;7.30;;;;;;;;;;5091708;28;20295;-68
2022/03/08 09:44:23;;;;;;;62.80;6.43;;;;;;;;;;5091785;28;20614;-68
2022/03/08 09:46:50;;;;;;;65.47;7.88;;;;;;;;;;5091508;28;20320;-68
2022/03/08 09:49:18;;;;;;;63.10;7.03;;;;;;;;;;5090704;28;20626;-69
2022/03/08 09:51:46;;;;;;;63.55;7.03;;;;;;;;;;5091209;28;20402;-68
2022/03/08 09:54:13;;;;;;;62.65;6.50;;;;;;;;;;5091239;28;20208;-70
2022/03/08 09:56:40;;;;;;;63.95;6.82;;;;;;;;;;5091510;28;20667;-69
2022/03/08 09:59:07;;;;;;;65.90;7.15;;;;;;;;;;5090576;28;20227;-68
2022/03/08 10:01:35;;;;;;;63.40;6.82;;;;;;;;;;5091361;28;20200;-68
2022/03/08 10:04:02;;;;;;;64.80;6.70;;;;;;;;;;5080128;28;20200;-69
2022/03/08 10:06:41;;;;;;;64.27;6.67;;;;;;;;;;5071661;28;20472;-68
2022/03/08 10:09:12;;;;;;;62.27;6.57;;;;;;;;;;5073585;28;20939;-68
2022/03/08 10:11:40;;;;;;;64.60;6.47;;;;;;;;;;5074554;28;20450;-71
2022/03/08 10:14:07;;;;;;;62.63;6.60;;;;;;;;;;5074614;28;20823;-69
2022/03/08 10:16:42;;;;;;;62.27;6.67;;;;;;;;;;5074413;28;20979;-69
2022/03/08 10:19:10;;;;;;;64.40;7.10;;;;;;;;;;5073716;28;20483;-69
2022/03/08 10:21:38;;;;;;;61.60;5.83;;;;;;;;;;5074534;28;20536;-69
2022/03/08 10:24:08;;;;;;;63.37;5.63;;;;;;;;;;5074458;28;20535;-69
2022/03/08 10:26:45;;;;;;;62.30;5.90;;;;;;;;;;5074382;28;20976;-69
2022/03/08 10:29:13;;;;;;;61.17;5.97;;;;;;;;;;5073317;28;20463;-69
2022/03/08 10:31:40;;;;;;;60.90;5.40;;;;;;;;;;5074281;28;20539;-69
2022/03/08 10:34:08;;;;;;;63.77;5.80;;;;;;;;;;5074131;28;20986;-69
2022/03/08 10:36:37;;;;;;;62.57;6.77;;;;;;;;;;5089828;28;20482;-69
2022/03/08 10:39:10;;;;;;;61.60;5.50;;;;;;;;;;5093594;28;20481;-69
2022/03/08 10:41:48;;;;;;;64.53;6.50;;;;;;;;;;5094350;28;20971;-69
2022/03/08 10:44:15;;;;;;;63.40;5.43;;;;;;;;;;5094700;28;20461;-69
2022/03/08 10:46:42;;;;;;;62.47;5.70;;;;;;;;;;5094383;28;20468;-69
2022/03/08 10:49:12;;;;;;;64.20;5.90;;;;;;;;;;5093645;28;20441;-69
2022/03/08 10:51:40;;;;;;;61.20;6.40;;;;;;;;;;5094860;28;20531;-69
2022/03/08 10:54:15;;;;;;;60.17;5.03;;;;;;;;;;5094157;28;20476;-68
2022/03/08 10:56:46;;;;;;;60.77;5.20;;;;;;;;;;5094598;28;20641;-68
2022/03/08 10:59:15;;;;;;;63.20;6.17;;;;;;;;;;5093484;28;20486;-69
2022/03/08 11:01:42;;;;;;;61.40;5.07;;;;;;;;;;5094140;28;20554;-67
2022/03/08 11:04:18;;;;;;;61.80;6.17;;;;;;;;;;5093891;28;20448;-69
2022/03/08 11:06:46;;;;;;;64.10;5.43;;;;;;;;;;5080586;28;20836;-68
2022/03/08 11:09:15;;;;;;;61.87;5.50;;;;;;;;;;5073152;28;20459;-68
2022/03/08 11:11:43;;;;;;;63.53;6.20;;;;;;;;;;5073721;28;20447;-67
2022/03/08 11:14:10;;;;;;;61.90;6.10;;;;;;;;;;5073501;28;20454;-68
2022/03/08 11:16:38;;;;;;;62.37;5.77;;;;;;;;;;5073379;28;20551;-69
2022/03/08 11:19:05;;;;;;;60.57;5.43;;;;;;;;;;5071871;28;20993;-70
2022/03/08 11:21:34;;;;;;;61.40;5.20;;;;;;;;;;5073109;28;20454;-68
2022/03/08 11:24:02;;;;;;;61.60;6.07;;;;;;;;;;5073437;28;20554;-69
2022/03/08 11:26:31;;;;;;;61.00;5.63;;;;;;;;;;5073158;28;20839;-67
2022/03/08 11:28:58;;;;;;;61.70;6.27;;;;;;;;;;5072434;28;20462;-67
2022/03/08 11:31:27;;;;;;;62.40;5.20;;;;;;;;;;5073063;28;20460;-69
2022/03/08 11:33:59;;;;;;;61.77;5.53;;;;;;;;;;5073019;28;20532;-67
2022/03/08 11:36:28;;;;;;;60.87;5.50;;;;;;;;;;5072041;28;20556;-66
2022/03/08 11:39:11;;;;;;;60.50;5.70;;;;;;;;;;5069072;28;20491;-67
2022/03/08 11:41:40;;;;;;;65.23;6.20;;;;;;;;;;5072920;28;20447;-68
2022/03/08 11:44:07;;;;;;;60.80;5.40;;;;;;;;;;5072628;28;20440;-69
2022/03/08 11:46:35;;;;;;;60.13;5.10;;;;;;;;;;5072681;28;20470;-67
2022/03/08 11:49:04;;;;;;;61.77;6.33;;;;;;;;;;5071990;28;20448;-68
2022/03/08 11:51:32;;;;;;;62.00;5.07;;;;;;;;;;5072994;28;20493;-67
2022/03/08 11:54:03;;;;;;;62.37;6.00;;;;;;;;;;5072734;28;20451;-67
2022/03/08 11:56:30;;;;;;;63.27;5.70;;;;;;;;;;5072498;28;20470;-69
2022/03/08 11:59:09;;;;;;;60.90;5.03;;;;;;;;;;5071657;28;20891;-67
2022/03/08 12:01:38;;;;;;;61.40;5.87;;;;;;;;;;5072759;28;20471;-69
2022/03/08 12:04:07;;;;;;;61.03;5.50;;;;;;;;;;5072355;28;21032;-68
2022/03/08 12:06:35;;;;;;;67.10;5.53;;;;;;;;;;5072352;28;20467;-68
2022/03/08 12:09:07;;;;;;;62.67;5.70;;;;;;;;;;5077731;28;20476;-68
2022/03/08 12:11:35;;;;;;;61.33;5.57;;;;;;;;;;5092745;28;20970;-67
2022/03/08 12:14:08;;;;;;;61.57;5.37;;;;;;;;;;5092682;28;20452;-67
2022/03/08 12:16:36;;;;;;;60.13;5.73;;;;;;;;;;5092565;28;20466;-68
2022/03/08 12:19:04;;;;;;;61.50;5.47;;;;;;;;;;5091740;28;20482;-66
2022/03/08 12:21:42;;;;;;;61.00;5.43;;;;;;;;;;5092388;28;21027;-68
2022/03/08 12:24:13;;;;;;;62.40;5.00;;;;;;;;;;5092657;28;20452;-67
2022/03/08 12:26:42;;;;;;;60.17;5.50;;;;;;;;;;5092389;28;20570;-69
2022/03/08 12:29:12;;;;;;;60.40;6.13;;;;;;;;;;5091603;28;20477;-68
2022/03/08 12:31:58;;;;;;;60.60;5.80;;;;;;;;;;5092464;28;20478;-69
2022/03/08 12:34:36;;;;;;;61.17;6.10;;;;;;;;;;5092069;28;20454;-70
2022/03/08 12:37:03;;;;;;;61.97;5.60;;;;;;;;;;5092480;28;20848;-68
2022/03/08 12:39:46;;;;;;;63.03;5.70;;;;;;;;;;5084812;28;20578;-69
2022/03/08 12:42:17;;;;;;;60.57;5.97;;;;;;;;;;5071985;28;20971;-70
2022/03/08 12:44:51;;;;;;;60.90;5.80;;;;;;;;;;5071714;28;20449;-68
2022/03/08 12:47:18;;;;;;;60.90;5.97;;;;;;;;;;5071393;28;20898;-68
2022/03/08 12:49:47;;;;;;;62.73;5.57;;;;;;;;;;5072056;28;20449;-70
2022/03/08 12:52:14;;;;;;;61.60;5.27;;;;;;;;;;5071999;28;20470;-70
2022/03/08 12:54:42;;;;;;;62.70;6.10;;;;;;;;;;5071849;28;20452;-68
2022/03/08 12:57:10;;;;;;;61.57;5.30;;;;;;;;;;5071162;28;20447;-68
2022/03/08 12:59:42;;;;;;;60.63;6.10;;;;;;;;;;5071896;28;21074;-67
2022/03/08 13:02:11;;;;;;;61.00;6.30;;;;;;;;;;5071659;28;20450;-68
2022/03/08 13:04:38;;;;;;;62.90;5.93;;;;;;;;;;5071835;28;20456;-68
2022/03/08 13:07:09;;;;;;;63.80;6.67;;;;;;;;;;5071610;28;20468;-68
2022/03/08 13:09:49;;;;;;;61.07;6.40;;;;;;;;;;5071234;28;20451;-67
2022/03/08 13:12:20;;;;;;;62.53;6.73;;;;;;;;;;5068536;28;20459;-69
2022/03/08 13:15:02;;;;;;;61.70;6.00;;;;;;;;;;5071400;28;20463;-68
2022/03/08 13:17:31;;;;;;;61.47;6.10;;;;;;;;;;5070572;28;20449;-68
2022/03/08 13:19:58;;;;;;;60.50;5.80;;;;;;;;;;5071238;28;20480;-68
2022/03/08 13:22:25;;;;;;;61.73;6.23;;;;;;;;;;5071161;28;20540;-68
2022/03/08 13:25:08;;;;;;;61.47;6.43;;;;;;;;;;5071390;28;20642;-67
2022/03/08 13:27:51;;;;;;;61.27;5.60;;;;;;;;;;5070614;28;20471;-68
2022/03/08 13:30:19;;;;;;;61.43;5.47;;;;;;;;;;5071380;28;20871;-70
2022/03/08 13:32:48;;;;;;;62.47;6.10;;;;;;;;;;5071033;28;20455;-68
2022/03/08 13:35:15;;;;;;;61.00;6.10;;;;;;;;;;5071244;28;20463;-68
2022/03/08 13:37:49;;;;;;;62.27;6.23;;;;;;;;;;5070632;28;20836;-67
2022/03/08 13:40:26;;;;;;;61.20;5.10;;;;;;;;;;5071215;28;20489;-67
2022/03/08 13:42:53;;;;;;;61.93;5.87;;;;;;;;;;5071366;28;20541;-67
2022/03/08 13:45:21;;;;;;;62.07;6.10;;;;;;;;;;5075168;28;20553;-68
2022/03/08 13:47:52;;;;;;;67.53;6.30;;;;;;;;;;5074471;28;20534;-68
2022/03/08 13:50:20;;;;;;;60.77;5.80;;;;;;;;;;5075041;28;20445;-68
2022/03/08 13:52:51;;;;;;;60.13;5.73;;;;;;;;;;5075133;28;20817;-68
2022/03/08 13:55:18;;;;;;;61.63;6.50;;;;;;;;;;5074739;28;20473;-68
2022/03/08 13:57:58;;;;;;;62.00;6.20;;;;;;;;;;5073981;28;20446;-67
2022/03/08 14:00:29;;;;;;;61.27;5.50;;;;;;;;;;5075111;28;20564;-67
2022/03/08 14:02:58;;;;;;;59.73;5.33;;;;;;;;;;5074646;28;20968;-68
2022/03/08 14:05:26;;;;;;;62.00;6.00;;;;;;;;;;5074722;28;20555;-68
2022/03/08 14:08:03;;;;;;;61.30;5.50;;;;;;;;;;5074373;28;20488;-70
2022/03/08 14:10:30;;;;;;;63.27;6.07;;;;;;;;;;5074480;28;20526;-70
2022/03/08 14:12:59;;;;;;;61.13;5.40;;;;;;;;;;5072932;28;20467;-68
2022/03/08 14:15:29;;;;;;;62.83;5.50;;;;;;;;;;5094843;28;20466;-68
2022/03/08 14:18:08;;;;;;;60.70;5.63;;;;;;;;;;5093873;28;20456;-69
2022/03/08 14:20:39;;;;;;;62.33;6.27;;;;;;;;;;5094340;28;20567;-68
2022/03/08 14:23:08;;;;;;;64.30;6.20;;;;;;;;;;5094613;28;20947;-69
2022/03/08 14:25:36;;;;;;;61.10;5.77;;;;;;;;;;5094564;28;20471;-68
2022/03/08 14:28:04;;;;;;;60.90;5.90;;;;;;;;;;5093825;28;20446;-68